Parauna, Brazil
Current Conditions -  °F | °C
As of 12:00 PM on Wednesday 26 Nov 2014 (Local Time) from SBGO Reporting Station
Broken Clouds Broken Clouds  
Wind Chill: 79°   Ceiling: 8000
Heat Index: 81°   Visibility: 6mi
Dew Point: 64°   Wind: 13mph
Humidity: 61%   Direction: 330°NNW
Pressure: 29.97"   Gusts: NA
Location:  16.95°S, 50.45°W
Report Text: SBGO 261400Z 33011KT 9999 SCT017 BKN080 26/18 Q1015
Loading
Personal Weather Stations






























Interactive Weather Map New forecast layout! Learn more

10-Day Weather Forecast

Advertisements
Track Severe Weather on mobile